Station Historical Data
Daily Summary for April 22, 2012 Units:  Both    English   Metric
« Previous Day
Next Day »
Daily Weekly Monthly Yearly Custom
  High: Low: Average:
Temperature: 61.3 °F /  16.3 °C 39.9 °F /  4.4 °C 49.6 °F /  9.8 °C
Dew Point: 47.4 °F /  8.6 °C 38.7 °F /  3.7 °C 42.8 °F /  6 °C
Humidity: 96% 54% 79%
Wind Speed: 19.0mph /  30.6km/h - 5.7mph /  9.2km/h
Wind Gust: 20.0mph /  32.2km/h - -
Wind- - WNW
Pressure: 29.92 in /  1013.1 hPa 29.79 in /  1008.7 hPa -
Precipitation: 0.05 in /  1.27 mm    
Historical Graphs
 
 
Tabular Data for April 22, 2012
Time Temperature Dew Point Pressure Wind Wind Speed Wind Gust Humidity Rainfall Rate (Hourly) Conditions
00:00 47.8 °F /  8.8 °C 44.1 °F /  6.7 °C 29.90in /  1012.4hPa NNE 6.0mph /  9.7km/h 7.0mph /  11.3km/h 87% 0.00in /  0mm
00:01 47.8 °F /  8.8 °C 44.1 °F /  6.7 °C 29.90in /  1012.4hPa NNE 4.0mph /  6.4km/h 7.0mph /  11.3km/h 87% 0.00in /  0mm
00:03 47.8 °F /  8.8 °C 44.1 °F /  6.7 °C 29.90in /  1012.4hPa NNE 6.0mph /  9.7km/h 8.0mph /  12.9km/h 87% 0.00in /  0mm
00:08 47.8 °F /  8.8 °C 43.8 °F /  6.6 °C 29.90in /  1012.4hPa NNW 6.0mph /  9.7km/h 9.0mph /  14.5km/h 86% 0.00in /  0mm
00:13 47.8 °F /  8.8 °C 43.8 °F /  6.6 °C 29.90in /  1012.4hPa NNW 5.0mph /  8km/h 7.0mph /  11.3km/h 86% 0.00in /  0mm
00:18 47.8 °F /  8.8 °C 43.8 °F /  6.6 °C 29.90in /  1012.4hPa NNE 5.0mph /  8km/h 11.0mph /  17.7km/h 86% 0.00in /  0mm
00:23 47.8 °F /  8.8 °C 43.8 °F /  6.6 °C 29.90in /  1012.4hPa NNW 3.0mph /  4.8km/h 8.0mph /  12.9km/h 86% 0.00in /  0mm
00:28 47.6 °F /  8.7 °C 43.9 °F /  6.6 °C 29.90in /  1012.4hPa NNW 4.0mph /  6.4km/h 6.0mph /  9.7km/h 87% 0.00in /  0mm
00:33 47.5 °F /  8.6 °C 43.5 °F /  6.4 °C 29.89in /  1012.1hPa NNW 3.0mph /  4.8km/h 7.0mph /  11.3km/h 86% 0.00in /  0mm
00:38 47.1 °F /  8.4 °C 43.4 °F /  6.3 °C 29.89in /  1012.1hPa North 4.0mph /  6.4km/h 6.0mph /  9.7km/h 87% 0.00in /  0mm
00:43 46.9 °F /  8.3 °C 43.2 °F /  6.2 °C 29.89in /  1012.1hPa NNE 5.0mph /  8km/h 9.0mph /  14.5km/h 87% 0.00in /  0mm
00:48 46.7 °F /  8.2 °C 43.0 °F /  6.1 °C 29.90in /  1012.4hPa North 4.0mph /  6.4km/h 6.0mph /  9.7km/h 87% 0.00in /  0mm
00:53 46.3 °F /  7.9 °C 43.0 °F /  6.1 °C 29.89in /  1012.1hPa NNW 3.0mph /  4.8km/h 5.0mph /  8km/h 88% 0.00in /  0mm
00:58 46.1 °F /  7.8 °C 43.0 °F /  6.1 °C 29.90in /  1012.4hPa NW 3.0mph /  4.8km/h 6.0mph /  9.7km/h 89% 0.00in /  0mm
01:03 45.9 °F /  7.7 °C 42.8 °F /  6 °C 29.89in /  1012.1hPa North 2.0mph /  3.2km/h 6.0mph /  9.7km/h 89% 0.00in /  0mm
01:08 45.7 °F /  7.6 °C 42.7 °F /  5.9 °C 29.90in /  1012.4hPa NW 5.0mph /  8km/h 5.0mph /  8km/h 89% 0.00in /  0mm
01:13 45.4 °F /  7.4 °C 42.6 °F /  5.9 °C 29.89in /  1012.1hPa NW 2.0mph /  3.2km/h 5.0mph /  8km/h 90% 0.00in /  0mm
01:18 45.1 °F /  7.3 °C 42.3 °F /  5.7 °C 29.89in /  1012.1hPa NNW 4.0mph /  6.4km/h 4.0mph /  6.4km/h 90% 0.00in /  0mm
01:23 44.8 °F /  7.1 °C 42.3 °F /  5.7 °C 29.89in /  1012.1hPa NNW 4.0mph /  6.4km/h 4.0mph /  6.4km/h 91% 0.00in /  0mm
01:28 44.7 °F /  7.1 °C 42.2 °F /  5.7 °C 29.89in /  1012.1hPa NNW 3.0mph /  4.8km/h 6.0mph /  9.7km/h 91% 0.00in /  0mm
01:33 44.6 °F /  7 °C 42.4 °F /  5.8 °C 29.89in /  1012.1hPa NNW 4.0mph /  6.4km/h 6.0mph /  9.7km/h 92% 0.00in /  0mm
01:38 44.5 °F /  6.9 °C 42.3 °F /  5.7 °C 29.89in /  1012.1hPa NW 3.0mph /  4.8km/h 4.0mph /  6.4km/h 92% 0.00in /  0mm
01:43 44.5 °F /  6.9 °C 42.3 °F /  5.7 °C 29.89in /  1012.1hPa NW 7.0mph /  11.3km/h 7.0mph /  11.3km/h 92% 0.00in /  0mm
01:48 44.5 °F /  6.9 °C 42.3 °F /  5.7 °C 29.89in /  1012.1hPa NNW 4.0mph /  6.4km/h 6.0mph /  9.7km/h 92% 0.00in /  0mm
01:53 44.5 °F /  6.9 °C 42.3 °F /  5.7 °C 29.89in /  1012.1hPa NNW 3.0mph /  4.8km/h 9.0mph /  14.5km/h 92% 0.00in /  0mm
01:58 44.5 °F /  6.9 °C 42.3 °F /  5.7 °C 29.88in /  1011.7hPa NNW 4.0mph /  6.4km/h 7.0mph /  11.3km/h 92% 0.00in /  0mm
02:03 44.5 °F /  6.9 °C 42.0 °F /  5.6 °C 29.88in /  1011.7hPa NNW 6.0mph /  9.7km/h 7.0mph /  11.3km/h 91% 0.00in /  0mm
02:08 44.5 °F /  6.9 °C 42.0 °F /  5.6 °C 29.88in /  1011.7hPa NNW 4.0mph /  6.4km/h 7.0mph /  11.3km/h 91% 0.00in /  0mm
02:13 44.3 °F /  6.8 °C 41.8 °F /  5.4 °C 29.88in /  1011.7hPa NNW 5.0mph /  8km/h 6.0mph /  9.7km/h 91% 0.00in /  0mm
02:19 44.1 °F /  6.7 °C 41.7 °F /  5.4 °C 29.88in /  1011.7hPa NNW 5.0mph /  8km/h 5.0mph /  8km/h 91% 0.00in /  0mm
02:24 43.9 °F /  6.6 °C 41.5 °F /  5.3 °C 29.87in /  1011.4hPa NNW 4.0mph /  6.4km/h 5.0mph /  8km/h 91% 0.00in /  0mm
02:28 43.8 °F /  6.6 °C 41.3 °F /  5.2 °C 29.87in /  1011.4hPa NW 3.0mph /  4.8km/h 4.0mph /  6.4km/h 91% 0.00in /  0mm
02:34 43.7 °F /  6.5 °C 41.5 °F /  5.3 °C 29.87in /  1011.4hPa NW 4.0mph /  6.4km/h 5.0mph /  8km/h 92% 0.00in /  0mm
02:39 43.5 °F /  6.4 °C 41.3 °F /  5.2 °C 29.87in /  1011.4hPa NNW 3.0mph /  4.8km/h 4.0mph /  6.4km/h 92% 0.00in /  0mm
02:44 43.3 °F /  6.3 °C 41.1 °F /  5.1 °C 29.87in /  1011.4hPa NW 3.0mph /  4.8km/h 5.0mph /  8km/h 92% 0.00in /  0mm
02:49 43.1 °F /  6.2 °C 40.9 °F /  4.9 °C 29.87in /  1011.4hPa NW 4.0mph /  6.4km/h 5.0mph /  8km/h 92% 0.00in /  0mm
02:54 43.1 °F /  6.2 °C 41.2 °F /  5.1 °C 29.87in /  1011.4hPa NNW 2.0mph /  3.2km/h 4.0mph /  6.4km/h 93% 0.00in /  0mm
02:59 43.0 °F /  6.1 °C 41.1 °F /  5.1 °C 29.87in /  1011.4hPa NNW 3.0mph /  4.8km/h 3.0mph /  4.8km/h 93% 0.00in /  0mm
03:04 42.9 °F /  6.1 °C 41.0 °F /  5 °C 29.87in /  1011.4hPa NW 3.0mph /  4.8km/h 5.0mph /  8km/h 93% 0.00in /  0mm
03:09 42.9 °F /  6.1 °C 41.3 °F /  5.2 °C 29.86in /  1011.1hPa NW 3.0mph /  4.8km/h 6.0mph /  9.7km/h 94% 0.00in /  0mm
03:14 43.1 °F /  6.2 °C 41.5 °F /  5.3 °C 29.86in /  1011.1hPa NW 5.0mph /  8km/h 7.0mph /  11.3km/h 94% 0.00in /  0mm
03:19 43.2 °F /  6.2 °C 41.6 °F /  5.3 °C 29.86in /  1011.1hPa NNW 4.0mph /  6.4km/h 6.0mph /  9.7km/h 94% 0.00in /  0mm
03:24 43.3 °F /  6.3 °C 41.7 °F /  5.4 °C 29.86in /  1011.1hPa NNW 5.0mph /  8km/h 6.0mph /  9.7km/h 94% 0.00in /  0mm
03:29 43.3 °F /  6.3 °C 41.7 °F /  5.4 °C 29.86in /  1011.1hPa North 5.0mph /  8km/h 7.0mph /  11.3km/h 94% 0.00in /  0mm
03:34 43.2 °F /  6.2 °C 41.6 °F /  5.3 °C 29.86in /  1011.1hPa NNW 4.0mph /  6.4km/h 7.0mph /  11.3km/h 94% 0.00in /  0mm
03:39 43.3 °F /  6.3 °C 41.7 °F /  5.4 °C 29.86in /  1011.1hPa NNW 6.0mph /  9.7km/h 7.0mph /  11.3km/h 94% 0.00in /  0mm
03:44 43.2 °F /  6.2 °C 41.6 °F /  5.3 °C 29.86in /  1011.1hPa NW 4.0mph /  6.4km/h 6.0mph /  9.7km/h 94% 0.00in /  0mm
03:49 43.1 °F /  6.2 °C 41.5 °F /  5.3 °C 29.85in /  1010.7hPa NNW 4.0mph /  6.4km/h 7.0mph /  11.3km/h 94% 0.00in /  0mm
03:54 43.1 °F /  6.2 °C 41.5 °F /  5.3 °C 29.86in /  1011.1hPa NW 3.0mph /  4.8km/h 7.0mph /  11.3km/h 94% 0.00in /  0mm
03:59 43.0 °F /  6.1 °C 41.4 °F /  5.2 °C 29.85in /  1010.7hPa NW 1.0mph /  1.6km/h 4.0mph /  6.4km/h 94% 0.00in /  0mm
04:04 42.8 °F /  6 °C 41.2 °F /  5.1 °C 29.85in /  1010.7hPa NNW 2.0mph /  3.2km/h 4.0mph /  6.4km/h 94% 0.00in /  0mm
04:09 42.7 °F /  5.9 °C 41.1 °F /  5.1 °C 29.85in /  1010.7hPa NNW 3.0mph /  4.8km/h 4.0mph /  6.4km/h 94% 0.00in /  0mm
04:14 42.5 °F /  5.8 °C 40.9 °F /  4.9 °C 29.86in /  1011.1hPa NNW 3.0mph /  4.8km/h 4.0mph /  6.4km/h 94% 0.00in /  0mm
04:20 42.4 °F /  5.8 °C 40.8 °F /  4.9 °C 29.85in /  1010.7hPa NW 3.0mph /  4.8km/h 3.0mph /  4.8km/h 94% 0.00in /  0mm
04:24 42.2 °F /  5.7 °C 40.6 °F /  4.8 °C 29.86in /  1011.1hPa NW 1.0mph /  1.6km/h 3.0mph /  4.8km/h 94% 0.00in /  0mm
04:30 42.1 °F /  5.6 °C 40.5 °F /  4.7 °C 29.86in /  1011.1hPa NW 1.0mph /  1.6km/h 3.0mph /  4.8km/h 94% 0.00in /  0mm
04:35 41.9 °F /  5.5 °C 40.3 °F /  4.6 °C 29.86in /  1011.1hPa NNW 2.0mph /  3.2km/h 2.0mph /  3.2km/h 94% 0.00in /  0mm
04:40 41.8 °F /  5.4 °C 40.2 °F /  4.6 °C 29.86in /  1011.1hPa NW 2.0mph /  3.2km/h 3.0mph /  4.8km/h 94% 0.00in /  0mm
04:45 41.7 °F /  5.4 °C 40.1 °F /  4.5 °C 29.86in /  1011.1hPa NW 2.0mph /  3.2km/h 4.0mph /  6.4km/h 94% 0.00in /  0mm
04:50 41.7 °F /  5.4 °C 40.4 °F /  4.7 °C 29.86in /  1011.1hPa North 2.0mph /  3.2km/h 4.0mph /  6.4km/h 95% 0.00in /  0mm
04:55 41.7 °F /  5.4 °C 40.4 °F /  4.7 °C 29.86in /  1011.1hPa NNW 4.0mph /  6.4km/h 5.0mph /  8km/h 95% 0.00in /  0mm
05:00 41.8 °F /  5.4 °C 40.2 °F /  4.6 °C 29.86in /  1011.1hPa NNW 3.0mph /  4.8km/h 6.0mph /  9.7km/h 94% 0.00in /  0mm
05:05 41.9 °F /  5.5 °C 40.3 °F /  4.6 °C 29.85in /  1010.7hPa NW 4.0mph /  6.4km/h 5.0mph /  8km/h 94% 0.00in /  0mm
05:10 41.9 °F /  5.5 °C 40.3 °F /  4.6 °C 29.85in /  1010.7hPa NW 3.0mph /  4.8km/h 5.0mph /  8km/h 94% 0.00in /  0mm
05:11 41.9 °F /  5.5 °C 40.3 °F /  4.6 °C 29.85in /  1010.7hPa NW 5.0mph /  8km/h 5.0mph /  8km/h 94% 0.00in /  0mm
05:16 41.8 °F /  5.4 °C 40.2 °F /  4.6 °C 29.85in /  1010.7hPa NNW 5.0mph /  8km/h 6.0mph /  9.7km/h 94% 0.00in /  0mm
05:21 41.8 °F /  5.4 °C 40.2 °F /  4.6 °C 29.85in /  1010.7hPa NNW 3.0mph /  4.8km/h 5.0mph /  8km/h 94% 0.00in /  0mm
05:26 41.7 °F /  5.4 °C 40.1 °F /  4.5 °C 29.85in /  1010.7hPa NW 2.0mph /  3.2km/h 4.0mph /  6.4km/h 94% 0.00in /  0mm
05:31 41.6 °F /  5.3 °C 40.0 °F /  4.4 °C 29.85in /  1010.7hPa NNW 3.0mph /  4.8km/h 4.0mph /  6.4km/h 94% 0.00in /  0mm
05:36 41.5 °F /  5.3 °C 39.9 °F /  4.4 °C 29.85in /  1010.7hPa NNW 3.0mph /  4.8km/h 5.0mph /  8km/h 94% 0.00in /  0mm
05:41 41.3 °F /  5.2 °C 39.7 °F /  4.3 °C 29.86in /  1011.1hPa NNW 3.0mph /  4.8km/h 4.0mph /  6.4km/h 94% 0.00in /  0mm
05:46 41.3 °F /  5.2 °C 39.7 °F /  4.3 °C 29.85in /  1010.7hPa NNW 2.0mph /  3.2km/h 3.0mph /  4.8km/h 94% 0.00in /  0mm
05:51 41.2 °F /  5.1 °C 39.9 °F /  4.4 °C 29.85in /  1010.7hPa NW 2.0mph /  3.2km/h 5.0mph /  8km/h 95% 0.00in /  0mm
05:56 41.1 °F /  5.1 °C 39.8 °F /  4.3 °C 29.85in /  1010.7hPa NNW 2.0mph /  3.2km/h 3.0mph /  4.8km/h 95% 0.00in /  0mm
06:01 41.0 °F /  5 °C 39.7 °F /  4.3 °C 29.85in /  1010.7hPa NNW 1.0mph /  1.6km/h 4.0mph /  6.4km/h 95% 0.00in /  0mm
06:06 40.9 °F /  4.9 °C 39.6 °F /  4.2 °C 29.85in /  1010.7hPa NNW 2.0mph /  3.2km/h 4.0mph /  6.4km/h 95% 0.00in /  0mm
06:11 40.9 °F /  4.9 °C 39.6 °F /  4.2 °C 29.86in /  1011.1hPa NNW 3.0mph /  4.8km/h 7.0mph /  11.3km/h 95% 0.00in /  0mm
06:16 40.9 °F /  4.9 °C 39.6 °F /  4.2 °C 29.86in /  1011.1hPa NW 3.0mph /  4.8km/h 4.0mph /  6.4km/h 95% 0.00in /  0mm
06:21 40.9 °F /  4.9 °C 39.6 °F /  4.2 °C 29.86in /  1011.1hPa NW 3.0mph /  4.8km/h 5.0mph /  8km/h 95% 0.00in /  0mm
06:26 40.8 °F /  4.9 °C 39.5 °F /  4.2 °C 29.87in /  1011.4hPa NW 2.0mph /  3.2km/h 4.0mph /  6.4km/h 95% 0.00in /  0mm
06:31 40.7 °F /  4.8 °C 39.4 °F /  4.1 °C 29.87in /  1011.4hPa NW 4.0mph /  6.4km/h 5.0mph /  8km/h 95% 0.00in /  0mm
06:36 40.5 °F /  4.7 °C 39.2 °F /  4 °C 29.86in /  1011.1hPa NW 4.0mph /  6.4km/h 4.0mph /  6.4km/h 95% 0.00in /  0mm
06:41 40.4 °F /  4.7 °C 39.1 °F /  3.9 °C 29.86in /  1011.1hPa NW 4.0mph /  6.4km/h 5.0mph /  8km/h 95% 0.00in /  0mm
06:46 40.4 °F /  4.7 °C 39.1 °F /  3.9 °C 29.86in /  1011.1hPa NNW 4.0mph /  6.4km/h 5.0mph /  8km/h 95% 0.00in /  0mm
06:52 40.3 °F /  4.6 °C 39.0 °F /  3.9 °C 29.86in /  1011.1hPa NNW 2.0mph /  3.2km/h 5.0mph /  8km/h 95% 0.00in /  0mm
06:57 40.1 °F /  4.5 °C 39.0 °F /  3.9 °C 29.86in /  1011.1hPa NW 2.0mph /  3.2km/h 4.0mph /  6.4km/h 96% 0.00in /  0mm
07:02 40.0 °F /  4.4 °C 38.7 °F /  3.7 °C 29.86in /  1011.1hPa NNW 2.0mph /  3.2km/h 4.0mph /  6.4km/h 95% 0.00in /  0mm
07:07 40.0 °F /  4.4 °C 39.0 °F /  3.9 °C 29.86in /  1011.1hPa NW 2.0mph /  3.2km/h 4.0mph /  6.4km/h 96% 0.00in /  0mm
07:12 40.0 °F /  4.4 °C 39.0 °F /  3.9 °C 29.86in /  1011.1hPa NNW 3.0mph /  4.8km/h 6.0mph /  9.7km/h 96% 0.00in /  0mm
07:17 40.0 °F /  4.4 °C 39.0 °F /  3.9 °C 29.86in /  1011.1hPa NW 3.0mph /  4.8km/h 5.0mph /  8km/h 96% 0.00in /  0mm
07:22 40.0 °F /  4.4 °C 39.0 °F /  3.9 °C 29.86in /  1011.1hPa NNW 2.0mph /  3.2km/h 4.0mph /  6.4km/h 96% 0.00in /  0mm
07:27 40.0 °F /  4.4 °C 39.0 °F /  3.9 °C 29.86in /  1011.1hPa WNW 1.0mph /  1.6km/h 3.0mph /  4.8km/h 96% 0.00in /  0mm
07:32 40.0 °F /  4.4 °C 39.0 °F /  3.9 °C 29.86in /  1011.1hPa NNW 2.0mph /  3.2km/h 4.0mph /  6.4km/h 96% 0.00in /  0mm
07:37 39.9 °F /  4.4 °C 38.8 °F /  3.8 °C 29.87in /  1011.4hPa North 4.0mph /  6.4km/h 4.0mph /  6.4km/h 96% 0.00in /  0mm
07:42 40.1 °F /  4.5 °C 39.0 °F /  3.9 °C 29.87in /  1011.4hPa NW 2.0mph /  3.2km/h 3.0mph /  4.8km/h 96% 0.00in /  0mm
07:47 40.5 °F /  4.7 °C 39.5 °F /  4.2 °C 29.87in /  1011.4hPa NNW 4.0mph /  6.4km/h 6.0mph /  9.7km/h 96% 0.00in /  0mm
07:52 40.8 °F /  4.9 °C 39.8 °F /  4.3 °C 29.87in /  1011.4hPa NW 4.0mph /  6.4km/h 7.0mph /  11.3km/h 96% 0.00in /  0mm
07:57 41.0 °F /  5 °C 40.0 °F /  4.4 °C 29.87in /  1011.4hPa NNW 3.0mph /  4.8km/h 7.0mph /  11.3km/h 96% 0.00in /  0mm
08:02 41.2 °F /  5.1 °C 40.2 °F /  4.6 °C 29.87in /  1011.4hPa NW 6.0mph /  9.7km/h 6.0mph /  9.7km/h 96% 0.00in /  0mm
08:07 41.3 °F /  5.2 °C 40.2 °F /  4.6 °C 29.87in /  1011.4hPa North 5.0mph /  8km/h 8.0mph /  12.9km/h 96% 0.00in /  0mm
08:12 41.4 °F /  5.2 °C 40.3 °F /  4.6 °C 29.87in /  1011.4hPa North 6.0mph /  9.7km/h 12.0mph /  19.3km/h 96% 0.00in /  0mm
08:17 41.7 °F /  5.4 °C 40.7 °F /  4.8 °C 29.87in /  1011.4hPa North 4.0mph /  6.4km/h 7.0mph /  11.3km/h 96% 0.00in /  0mm
08:22 41.8 °F /  5.4 °C 40.8 °F /  4.9 °C 29.87in /  1011.4hPa NW 4.0mph /  6.4km/h 12.0mph /  19.3km/h 96% 0.00in /  0mm
08:27 42.0 °F /  5.6 °C 40.9 °F /  4.9 °C 29.87in /  1011.4hPa NNW 8.0mph /  12.9km/h 8.0mph /  12.9km/h 96% 0.00in /  0mm
08:32 42.2 °F /  5.7 °C 41.1 °F /  5.1 °C 29.87in /  1011.4hPa NW 4.0mph /  6.4km/h 9.0mph /  14.5km/h 96% 0.00in /  0mm
08:37 42.4 °F /  5.8 °C 41.3 °F /  5.2 °C 29.87in /  1011.4hPa North 5.0mph /  8km/h 8.0mph /  12.9km/h 96% 0.00in /  0mm
08:42 42.8 °F /  6 °C 41.7 °F /  5.4 °C 29.87in /  1011.4hPa NNW 7.0mph /  11.3km/h 7.0mph /  11.3km/h 96% 0.00in /  0mm
08:47 42.8 °F /  6 °C 41.5 °F /  5.3 °C 29.87in /  1011.4hPa NNW 3.0mph /  4.8km/h 11.0mph /  17.7km/h 95% 0.00in /  0mm
08:52 42.9 °F /  6.1 °C 41.6 °F /  5.3 °C 29.87in /  1011.4hPa North 5.0mph /  8km/h 9.0mph /  14.5km/h 95% 0.00in /  0mm
08:57 43.3 °F /  6.3 °C 42.0 °F /  5.6 °C 29.87in /  1011.4hPa NNE 5.0mph /  8km/h 9.0mph /  14.5km/h 95% 0.00in /  0mm
09:03 43.5 °F /  6.4 °C 41.9 °F /  5.5 °C 29.86in /  1011.1hPa NE 5.0mph /  8km/h 7.0mph /  11.3km/h 94% 0.00in /  0mm
09:08 44.0 °F /  6.7 °C 42.4 °F /  5.8 °C 29.87in /  1011.4hPa North 9.0mph /  14.5km/h 10.0mph /  16.1km/h 94% 0.00in /  0mm
09:13 44.5 °F /  6.9 °C 42.9 °F /  6.1 °C 29.87in /  1011.4hPa North 8.0mph /  12.9km/h 8.0mph /  12.9km/h 94% 0.00in /  0mm
09:18 44.9 °F /  7.2 °C 42.7 °F /  5.9 °C 29.87in /  1011.4hPa NNW 7.0mph /  11.3km/h 11.0mph /  17.7km/h 92% 0.00in /  0mm
09:23 45.5 °F /  7.5 °C 43.6 °F /  6.4 °C 29.87in /  1011.4hPa NNW 6.0mph /  9.7km/h 8.0mph /  12.9km/h 93% 0.00in /  0mm
09:28 46.1 °F /  7.8 °C 43.6 °F /  6.4 °C 29.87in /  1011.4hPa North 4.0mph /  6.4km/h 7.0mph /  11.3km/h 91% 0.00in /  0mm
09:33 46.6 °F /  8.1 °C 44.1 °F /  6.7 °C 29.87in /  1011.4hPa NE 3.0mph /  4.8km/h 7.0mph /  11.3km/h 91% 0.00in /  0mm
09:38 46.9 °F /  8.3 °C 43.8 °F /  6.6 °C 29.87in /  1011.4hPa NNE 4.0mph /  6.4km/h 6.0mph /  9.7km/h 89% 0.00in /  0mm
09:43 47.4 °F /  8.6 °C 43.7 °F /  6.5 °C 29.86in /  1011.1hPa NNE 3.0mph /  4.8km/h 7.0mph /  11.3km/h 87% 0.00in /  0mm
09:48 48.0 °F /  8.9 °C 44.3 °F /  6.8 °C 29.86in /  1011.1hPa NNE 2.0mph /  3.2km/h 6.0mph /  9.7km/h 87% 0.00in /  0mm
09:53 48.2 °F /  9 °C 43.9 °F /  6.6 °C 29.86in /  1011.1hPa North 6.0mph /  9.7km/h 9.0mph /  14.5km/h 85% 0.00in /  0mm
09:54 48.2 °F /  9 °C 43.9 °F /  6.6 °C 29.86in /  1011.1hPa NE 4.0mph /  6.4km/h 7.0mph /  11.3km/h 85% 0.00in /  0mm
09:59 48.8 °F /  9.3 °C 44.5 °F /  6.9 °C 29.86in /  1011.1hPa WNW 5.0mph /  8km/h 6.0mph /  9.7km/h 85% 0.00in /  0mm
10:04 49.0 °F /  9.4 °C 44.1 °F /  6.7 °C 29.86in /  1011.1hPa NNW 8.0mph /  12.9km/h 10.0mph /  16.1km/h 83% 0.00in /  0mm
10:09 49.4 °F /  9.7 °C 43.8 °F /  6.6 °C 29.86in /  1011.1hPa NNE 4.0mph /  6.4km/h 9.0mph /  14.5km/h 81% 0.00in /  0mm
10:14 49.8 °F /  9.9 °C 44.5 °F /  6.9 °C 29.86in /  1011.1hPa North 7.0mph /  11.3km/h 9.0mph /  14.5km/h 82% 0.00in /  0mm
10:19 50.1 °F /  10.1 °C 44.5 °F /  6.9 °C 29.85in /  1010.7hPa NNW 8.0mph /  12.9km/h 9.0mph /  14.5km/h 81% 0.00in /  0mm
10:24 50.5 °F /  10.3 °C 45.2 °F /  7.3 °C 29.86in /  1011.1hPa NNW 5.0mph /  8km/h 6.0mph /  9.7km/h 82% 0.00in /  0mm
10:29 50.7 °F /  10.4 °C 44.1 °F /  6.7 °C 29.86in /  1011.1hPa NW 9.0mph /  14.5km/h 10.0mph /  16.1km/h 78% 0.00in /  0mm
10:34 50.7 °F /  10.4 °C 43.1 °F /  6.2 °C 29.87in /  1011.4hPa NW 11.0mph /  17.7km/h 12.0mph /  19.3km/h 75% 0.00in /  0mm
10:39 51.0 °F /  10.6 °C 43.7 °F /  6.5 °C 29.88in /  1011.7hPa North 8.0mph /  12.9km/h 12.0mph /  19.3km/h 76% 0.00in /  0mm
10:45 51.1 °F /  10.6 °C 43.8 °F /  6.6 °C 29.87in /  1011.4hPa NNW 10.0mph /  16.1km/h 13.0mph /  20.9km/h 76% 0.00in /  0mm
10:50 51.8 °F /  11 °C 43.8 °F /  6.6 °C 29.87in /  1011.4hPa North 13.0mph /  20.9km/h 13.0mph /  20.9km/h 74% 0.00in /  0mm
10:55 52.1 °F /  11.2 °C 43.4 °F /  6.3 °C 29.87in /  1011.4hPa NNE 7.0mph /  11.3km/h 13.0mph /  20.9km/h 72% 0.00in /  0mm
11:00 52.2 °F /  11.2 °C 44.2 °F /  6.8 °C 29.86in /  1011.1hPa NNE 4.0mph /  6.4km/h 13.0mph /  20.9km/h 74% 0.00in /  0mm
11:06 52.5 °F /  11.4 °C 43.8 °F /  6.6 °C 29.86in /  1011.1hPa NW 12.0mph /  19.3km/h 13.0mph /  20.9km/h 72% 0.00in /  0mm
11:11 52.6 °F /  11.4 °C 44.6 °F /  7 °C 29.87in /  1011.4hPa NNE 8.0mph /  12.9km/h 11.0mph /  17.7km/h 74% 0.00in /  0mm
11:16 52.8 °F /  11.6 °C 44.0 °F /  6.7 °C 29.87in /  1011.4hPa NNW 15.0mph /  24.1km/h 15.0mph /  24.1km/h 72% 0.00in /  0mm
11:21 52.9 °F /  11.6 °C 43.8 °F /  6.6 °C 29.87in /  1011.4hPa WNW 16.0mph /  25.7km/h 16.0mph /  25.7km/h 71% 0.00in /  0mm
11:26 53.3 °F /  11.8 °C 44.5 °F /  6.9 °C 29.86in /  1011.1hPa North 12.0mph /  19.3km/h 13.0mph /  20.9km/h 72% 0.00in /  0mm
11:31 53.5 °F /  11.9 °C 44.3 °F /  6.8 °C 29.86in /  1011.1hPa North 14.0mph /  22.5km/h 14.0mph /  22.5km/h 71% 0.00in /  0mm
11:36 53.9 °F /  12.2 °C 44.7 °F /  7.1 °C 29.86in /  1011.1hPa NW 8.0mph /  12.9km/h 9.0mph /  14.5km/h 71% 0.00in /  0mm
11:41 54.6 °F /  12.6 °C 44.3 °F /  6.8 °C 29.86in /  1011.1hPa NNW 8.0mph /  12.9km/h 11.0mph /  17.7km/h 68% 0.00in /  0mm
11:46 54.9 °F /  12.7 °C 43.4 °F /  6.3 °C 29.86in /  1011.1hPa NNW 8.0mph /  12.9km/h 12.0mph /  19.3km/h 65% 0.00in /  0mm
11:51 54.9 °F /  12.7 °C 44.2 °F /  6.8 °C 29.86in /  1011.1hPa NNE 11.0mph /  17.7km/h 15.0mph /  24.1km/h 67% 0.00in /  0mm
11:56 55.3 °F /  12.9 °C 44.2 °F /  6.8 °C 29.86in /  1011.1hPa NNW 14.0mph /  22.5km/h 14.0mph /  22.5km/h 66% 0.00in /  0mm
12:02 55.1 °F /  12.8 °C 42.3 °F /  5.7 °C 29.85in /  1010.7hPa NW 10.0mph /  16.1km/h 15.0mph /  24.1km/h 62% 0.00in /  0mm
12:07 55.3 °F /  12.9 °C 43.3 °F /  6.3 °C 29.85in /  1010.7hPa NNW 8.0mph /  12.9km/h 13.0mph /  20.9km/h 64% 0.00in /  0mm
12:12 55.4 °F /  13 °C 43.8 °F /  6.6 °C 29.85in /  1010.7hPa NNW 10.0mph /  16.1km/h 14.0mph /  22.5km/h 65% 0.00in /  0mm
12:17 55.7 °F /  13.2 °C 44.5 °F /  6.9 °C 29.84in /  1010.4hPa NW 7.0mph /  11.3km/h 12.0mph /  19.3km/h 66% 0.00in /  0mm
12:22 56.3 °F /  13.5 °C 43.5 °F /  6.4 °C 29.84in /  1010.4hPa WNW 8.0mph /  12.9km/h 12.0mph /  19.3km/h 62% 0.00in /  0mm
12:27 56.0 °F /  13.3 °C 43.2 °F /  6.2 °C 29.84in /  1010.4hPa NNW 12.0mph /  19.3km/h 15.0mph /  24.1km/h 62% 0.00in /  0mm
12:32 56.3 °F /  13.5 °C 45.5 °F /  7.5 °C 29.84in /  1010.4hPa NNE 6.0mph /  9.7km/h 12.0mph /  19.3km/h 67% 0.00in /  0mm
12:37 56.7 °F /  13.7 °C 44.7 °F /  7.1 °C 29.84in /  1010.4hPa WNW 4.0mph /  6.4km/h 12.0mph /  19.3km/h 64% 0.00in /  0mm
12:42 57.0 °F /  13.9 °C 45.0 °F /  7.2 °C 29.83in /  1010hPa NW 10.0mph /  16.1km/h 12.0mph /  19.3km/h 64% 0.00in /  0mm
12:47 57.1 °F /  13.9 °C 45.5 °F /  7.5 °C 29.84in /  1010.4hPa NNW 5.0mph /  8km/h 9.0mph /  14.5km/h 65% 0.00in /  0mm
12:52 57.6 °F /  14.2 °C 45.9 °F /  7.7 °C 29.83in /  1010hPa NW 7.0mph /  11.3km/h 9.0mph /  14.5km/h 65% 0.00in /  0mm
12:57 57.7 °F /  14.3 °C 45.2 °F /  7.3 °C 29.83in /  1010hPa WNW 8.0mph /  12.9km/h 11.0mph /  17.7km/h 63% 0.00in /  0mm
13:02 58.0 °F /  14.4 °C 46.3 °F /  7.9 °C 29.83in /  1010hPa WNW 5.0mph /  8km/h 8.0mph /  12.9km/h 65% 0.00in /  0mm
13:08 57.2 °F /  14 °C 42.1 °F /  5.6 °C 29.83in /  1010hPa NW 3.0mph /  4.8km/h 14.0mph /  22.5km/h 57% 0.00in /  0mm
13:13 57.0 °F /  13.9 °C 44.5 °F /  6.9 °C 29.83in /  1010hPa North 7.0mph /  11.3km/h 13.0mph /  20.9km/h 63% 0.00in /  0mm
13:18 57.7 °F /  14.3 °C 43.9 °F /  6.6 °C 29.83in /  1010hPa NNW 14.0mph /  22.5km/h 16.0mph /  25.7km/h 60% 0.00in /  0mm
13:23 57.9 °F /  14.4 °C 43.7 °F /  6.5 °C 29.83in /  1010hPa NNW 9.0mph /  14.5km/h 13.0mph /  20.9km/h 59% 0.00in /  0mm
13:28 58.2 °F /  14.6 °C 43.5 °F /  6.4 °C 29.83in /  1010hPa WNW 8.0mph /  12.9km/h 14.0mph /  22.5km/h 58% 0.00in /  0mm
13:34 58.5 °F /  14.7 °C 43.8 °F /  6.6 °C 29.82in /  1009.7hPa NNW 4.0mph /  6.4km/h 11.0mph /  17.7km/h 58% 0.00in /  0mm
13:39 59.0 °F /  15 °C 46.4 °F /  8 °C 29.82in /  1009.7hPa NNW 5.0mph /  8km/h 11.0mph /  17.7km/h 63% 0.00in /  0mm
13:44 59.0 °F /  15 °C 45.2 °F /  7.3 °C 29.82in /  1009.7hPa NNW 6.0mph /  9.7km/h 16.0mph /  25.7km/h 60% 0.00in /  0mm
13:49 59.2 °F /  15.1 °C 44.5 °F /  6.9 °C 29.82in /  1009.7hPa West 3.0mph /  4.8km/h 11.0mph /  17.7km/h 58% 0.00in /  0mm
13:54 59.9 °F /  15.5 °C 45.1 °F /  7.3 °C 29.82in /  1009.7hPa NW 16.0mph /  25.7km/h 16.0mph /  25.7km/h 58% 0.00in /  0mm
13:59 59.5 °F /  15.3 °C 44.3 °F /  6.8 °C 29.82in /  1009.7hPa North 8.0mph /  12.9km/h 12.0mph /  19.3km/h 57% 0.00in /  0mm
14:04 59.6 °F /  15.3 °C 47.4 °F /  8.6 °C 29.82in /  1009.7hPa NW 7.0mph /  11.3km/h 8.0mph /  12.9km/h 64% 0.00in /  0mm
14:09 60.2 °F /  15.7 °C 44.9 °F /  7.2 °C 29.82in /  1009.7hPa WNW 14.0mph /  22.5km/h 14.0mph /  22.5km/h 57% 0.00in /  0mm
14:14 60.3 °F /  15.7 °C 46.4 °F /  8 °C 29.81in /  1009.4hPa WNW 9.0mph /  14.5km/h 9.0mph /  14.5km/h 60% 0.00in /  0mm
14:19 60.7 °F /  15.9 °C 46.3 °F /  7.9 °C 29.81in /  1009.4hPa NW 9.0mph /  14.5km/h 12.0mph /  19.3km/h 59% 0.00in /  0mm
14:24 59.9 °F /  15.5 °C 44.7 °F /  7.1 °C 29.81in /  1009.4hPa NW 9.0mph /  14.5km/h 13.0mph /  20.9km/h 57% 0.00in /  0mm
14:29 59.5 °F /  15.3 °C 45.2 °F /  7.3 °C 29.81in /  1009.4hPa WNW 7.0mph /  11.3km/h 10.0mph /  16.1km/h 59% 0.00in /  0mm
14:34 59.2 °F /  15.1 °C 45.8 °F /  7.7 °C 29.81in /  1009.4hPa WNW 10.0mph /  16.1km/h 10.0mph /  16.1km/h 61% 0.00in /  0mm
14:40 59.3 °F /  15.2 °C 45.9 °F /  7.7 °C 29.81in /  1009.4hPa NNE 9.0mph /  14.5km/h 9.0mph /  14.5km/h 61% 0.00in /  0mm
14:45 59.5 °F /  15.3 °C 45.2 °F /  7.3 °C 29.81in /  1009.4hPa North 11.0mph /  17.7km/h 12.0mph /  19.3km/h 59% 0.00in /  0mm
14:50 59.0 °F /  15 °C 44.7 °F /  7.1 °C 29.81in /  1009.4hPa NW 3.0mph /  4.8km/h 10.0mph /  16.1km/h 59% 0.00in /  0mm
14:55 59.5 °F /  15.3 °C 45.2 °F /  7.3 °C 29.81in /  1009.4hPa NW 8.0mph /  12.9km/h 11.0mph /  17.7km/h 59% 0.00in /  0mm
15:00 58.8 °F /  14.9 °C 44.5 °F /  6.9 °C 29.81in /  1009.4hPa NNW 5.0mph /  8km/h 13.0mph /  20.9km/h 59% 0.00in /  0mm
15:05 58.5 °F /  14.7 °C 44.7 °F /  7.1 °C 29.81in /  1009.4hPa NW 10.0mph /  16.1km/h 13.0mph /  20.9km/h 60% 0.00in /  0mm
15:10 58.6 °F /  14.8 °C 44.8 °F /  7.1 °C 29.81in /  1009.4hPa WNW 9.0mph /  14.5km/h 10.0mph /  16.1km/h 60% 0.00in /  0mm
15:15 58.6 °F /  14.8 °C 45.2 °F /  7.3 °C 29.81in /  1009.4hPa NW 7.0mph /  11.3km/h 13.0mph /  20.9km/h 61% 0.00in /  0mm
15:16 58.7 °F /  14.8 °C 45.3 °F /  7.4 °C 29.81in /  1009.4hPa NW 6.0mph /  9.7km/h 13.0mph /  20.9km/h 61% 0.00in /  0mm
15:21 58.5 °F /  14.7 °C 43.8 °F /  6.6 °C 29.81in /  1009.4hPa North 10.0mph /  16.1km/h 14.0mph /  22.5km/h 58% 0.00in /  0mm
15:26 59.4 °F /  15.2 °C 45.5 °F /  7.5 °C 29.81in /  1009.4hPa WNW 18.0mph /  29km/h 18.0mph /  29km/h 60% 0.00in /  0mm
15:31 59.3 °F /  15.2 °C 43.6 °F /  6.4 °C 29.81in /  1009.4hPa WNW 11.0mph /  17.7km/h 15.0mph /  24.1km/h 56% 0.00in /  0mm
15:36 59.2 °F /  15.1 °C 43.5 °F /  6.4 °C 29.81in /  1009.4hPa WNW 11.0mph /  17.7km/h 18.0mph /  29km/h 56% 0.00in /  0mm
15:41 59.3 °F /  15.2 °C 43.6 °F /  6.4 °C 29.81in /  1009.4hPa WNW 8.0mph /  12.9km/h 15.0mph /  24.1km/h 56% 0.00in /  0mm
15:46 60.1 °F /  15.6 °C 44.8 °F /  7.1 °C 29.81in /  1009.4hPa NNW 5.0mph /  8km/h 16.0mph /  25.7km/h 57% 0.00in /  0mm
15:51 59.4 °F /  15.2 °C 44.2 °F /  6.8 °C 29.81in /  1009.4hPa NW 10.0mph /  16.1km/h 19.0mph /  30.6km/h 57% 0.00in /  0mm
15:56 59.7 °F /  15.4 °C 44.5 °F /  6.9 °C 29.81in /  1009.4hPa NW 15.0mph /  24.1km/h 20.0mph /  32.2km/h 57% 0.00in /  0mm
16:01 60.0 °F /  15.6 °C 43.8 °F /  6.6 °C 29.80in /  1009hPa NNW 9.0mph /  14.5km/h 16.0mph /  25.7km/h 55% 0.00in /  0mm
16:06 60.6 °F /  15.9 °C 45.3 °F /  7.4 °C 29.80in /  1009hPa NNW 15.0mph /  24.1km/h 17.0mph /  27.4km/h 57% 0.00in /  0mm
16:11 60.8 °F /  16 °C 44.1 °F /  6.7 °C 29.80in /  1009hPa NW 13.0mph /  20.9km/h 15.0mph /  24.1km/h 54% 0.00in /  0mm
16:16 60.8 °F /  16 °C 44.5 °F /  6.9 °C 29.80in /  1009hPa WNW 15.0mph /  24.1km/h 20.0mph /  32.2km/h 55% 0.00in /  0mm
16:21 60.9 °F /  16.1 °C 45.1 °F /  7.3 °C 29.80in /  1009hPa North 19.0mph /  30.6km/h 19.0mph /  30.6km/h 56% 0.00in /  0mm
16:26 61.3 °F /  16.3 °C 46.0 °F /  7.8 °C 29.79in /  1008.7hPa NNW 10.0mph /  16.1km/h 12.0mph /  19.3km/h 57% 0.00in /  0mm
16:31 61.3 °F /  16.3 °C 46.4 °F /  8 °C 29.79in /  1008.7hPa NNW 6.0mph /  9.7km/h 14.0mph /  22.5km/h 58% 0.00in /  0mm
16:36 61.0 °F /  16.1 °C 45.2 °F /  7.3 °C 29.80in /  1009hPa WNW 15.0mph /  24.1km/h 16.0mph /  25.7km/h 56% 0.00in /  0mm
16:41 59.6 °F /  15.3 °C 43.9 °F /  6.6 °C 29.80in /  1009hPa WNW 7.0mph /  11.3km/h 19.0mph /  30.6km/h 56% 0.00in /  0mm
16:47 58.9 °F /  14.9 °C 43.2 °F /  6.2 °C 29.80in /  1009hPa WNW 9.0mph /  14.5km/h 14.0mph /  22.5km/h 56% 0.00in /  0mm
16:52 58.6 °F /  14.8 °C 43.9 °F /  6.6 °C 29.80in /  1009hPa NW 11.0mph /  17.7km/h 17.0mph /  27.4km/h 58% 0.00in /  0mm
16:57 59.3 °F /  15.2 °C 44.1 °F /  6.7 °C 29.80in /  1009hPa NW 7.0mph /  11.3km/h 14.0mph /  22.5km/h 57% 0.00in /  0mm
17:02 60.0 °F /  15.6 °C 44.7 °F /  7.1 °C 29.80in /  1009hPa NW 9.0mph /  14.5km/h 13.0mph /  20.9km/h 57% 0.00in /  0mm
17:07 60.5 °F /  15.8 °C 44.7 °F /  7.1 °C 29.80in /  1009hPa NW 6.0mph /  9.7km/h 16.0mph /  25.7km/h 56% 0.00in /  0mm
17:12 60.8 °F /  16 °C 46.0 °F /  7.8 °C 29.80in /  1009hPa NNW 8.0mph /  12.9km/h 13.0mph /  20.9km/h 58% 0.00in /  0mm
17:17 59.3 °F /  15.2 °C 45.0 °F /  7.2 °C 29.81in /  1009.4hPa NNW 9.0mph /  14.5km/h 11.0mph /  17.7km/h 59% 0.00in /  0mm
17:22 58.3 °F /  14.6 °C 44.5 °F /  6.9 °C 29.80in /  1009hPa NNW 4.0mph /  6.4km/h 14.0mph /  22.5km/h 60% 0.00in /  0mm
17:27 58.0 °F /  14.4 °C 44.2 °F /  6.8 °C 29.81in /  1009.4hPa NW 10.0mph /  16.1km/h 13.0mph /  20.9km/h 60% 0.00in /  0mm
17:32 57.6 °F /  14.2 °C 44.3 °F /  6.8 °C 29.81in /  1009.4hPa North 13.0mph /  20.9km/h 16.0mph /  25.7km/h 61% 0.00in /  0mm
17:37 54.9 °F /  12.7 °C 46.4 °F /  8 °C 29.82in /  1009.7hPa NNW 9.0mph /  14.5km/h 17.0mph /  27.4km/h 73% 1.10in /  27.94mm
17:42 52.9 °F /  11.6 °C 45.9 °F /  7.7 °C 29.82in /  1009.7hPa NNE 4.0mph /  6.4km/h 14.0mph /  22.5km/h 77% 0.22in /  5.59mm
17:47 52.7 °F /  11.5 °C 46.7 °F /  8.2 °C 29.82in /  1009.7hPa NNW 7.0mph /  11.3km/h 8.0mph /  12.9km/h 80% 0.07in /  1.78mm
17:52 52.9 °F /  11.6 °C 45.9 °F /  7.7 °C 29.82in /  1009.7hPa NNW 8.0mph /  12.9km/h 11.0mph /  17.7km/h 77% 0.04in /  1.02mm
17:57 53.2 °F /  11.8 °C 46.2 °F /  7.9 °C 29.82in /  1009.7hPa NNE 6.0mph /  9.7km/h 10.0mph /  16.1km/h 77% 0.00in /  0mm
18:02 53.0 °F /  11.7 °C 45.7 °F /  7.6 °C 29.82in /  1009.7hPa NNE 11.0mph /  17.7km/h 11.0mph /  17.7km/h 76% 0.00in /  0mm
18:08 53.1 °F /  11.7 °C 45.4 °F /  7.4 °C 29.82in /  1009.7hPa North 6.0mph /  9.7km/h 10.0mph /  16.1km/h 75% 0.00in /  0mm
18:13 53.2 °F /  11.8 °C 45.5 °F /  7.5 °C 29.82in /  1009.7hPa NW 6.0mph /  9.7km/h 11.0mph /  17.7km/h 75% 0.00in /  0mm
18:18 53.3 °F /  11.8 °C 45.6 °F /  7.6 °C 29.83in /  1010hPa NW 2.0mph /  3.2km/h 5.0mph /  8km/h 75% 0.00in /  0mm
18:23 53.4 °F /  11.9 °C 45.3 °F /  7.4 °C 29.83in /  1010hPa NNW 5.0mph /  8km/h 7.0mph /  11.3km/h 74% 0.00in /  0mm
18:28 53.5 °F /  11.9 °C 45.4 °F /  7.4 °C 29.83in /  1010hPa NNW 8.0mph /  12.9km/h 11.0mph /  17.7km/h 74% 0.00in /  0mm
18:33 53.2 °F /  11.8 °C 45.1 °F /  7.3 °C 29.83in /  1010hPa North 9.0mph /  14.5km/h 10.0mph /  16.1km/h 74% 0.00in /  0mm
18:38 53.1 °F /  11.7 °C 45.4 °F /  7.4 °C 29.83in /  1010hPa NW 6.0mph /  9.7km/h 9.0mph /  14.5km/h 75% 0.00in /  0mm
18:43 53.1 °F /  11.7 °C 45.0 °F /  7.2 °C 29.83in /  1010hPa NNW 5.0mph /  8km/h 10.0mph /  16.1km/h 74% 0.00in /  0mm
18:48 53.0 °F /  11.7 °C 45.0 °F /  7.2 °C 29.83in /  1010hPa WNW 6.0mph /  9.7km/h 9.0mph /  14.5km/h 74% 0.00in /  0mm
18:53 53.2 °F /  11.8 °C 45.1 °F /  7.3 °C 29.84in /  1010.4hPa NW 5.0mph /  8km/h 7.0mph /  11.3km/h 74% 0.00in /  0mm
18:58 53.2 °F /  11.8 °C 45.1 °F /  7.3 °C 29.84in /  1010.4hPa NW 4.0mph /  6.4km/h 7.0mph /  11.3km/h 74% 0.00in /  0mm
19:03 53.5 °F /  11.9 °C 45.1 °F /  7.3 °C 29.84in /  1010.4hPa NW 3.0mph /  4.8km/h 6.0mph /  9.7km/h 73% 0.00in /  0mm
19:08 53.6 °F /  12 °C 45.2 °F /  7.3 °C 29.84in /  1010.4hPa North 7.0mph /  11.3km/h 8.0mph /  12.9km/h 73% 0.00in /  0mm
19:13 53.8 °F /  12.1 °C 45.4 °F /  7.4 °C 29.85in /  1010.7hPa WNW 8.0mph /  12.9km/h 8.0mph /  12.9km/h 73% 0.00in /  0mm
19:18 53.9 °F /  12.2 °C 44.3 °F /  6.8 °C 29.85in /  1010.7hPa NNW 9.0mph /  14.5km/h 12.0mph /  19.3km/h 70% 0.00in /  0mm
19:23 53.9 °F /  12.2 °C 44.7 °F /  7.1 °C 29.85in /  1010.7hPa WNW 9.0mph /  14.5km/h 12.0mph /  19.3km/h 71% 0.00in /  0mm
19:28 53.8 °F /  12.1 °C 44.6 °F /  7 °C 29.85in /  1010.7hPa NW 8.0mph /  12.9km/h 8.0mph /  12.9km/h 71% 0.00in /  0mm
19:33 53.6 °F /  12 °C 44.8 °F /  7.1 °C 29.85in /  1010.7hPa NNW 4.0mph /  6.4km/h 7.0mph /  11.3km/h 72% 0.00in /  0mm
19:39 53.1 °F /  11.7 °C 44.3 °F /  6.8 °C 29.85in /  1010.7hPa NNW 8.0mph /  12.9km/h 8.0mph /  12.9km/h 72% 0.00in /  0mm
19:44 52.8 °F /  11.6 °C 44.0 °F /  6.7 °C 29.85in /  1010.7hPa NW 5.0mph /  8km/h 9.0mph /  14.5km/h 72% 0.00in /  0mm
19:49 52.7 °F /  11.5 °C 44.3 °F /  6.8 °C 29.85in /  1010.7hPa NNW 5.0mph /  8km/h 7.0mph /  11.3km/h 73% 0.00in /  0mm
19:55 52.8 °F /  11.6 °C 44.4 °F /  6.9 °C 29.85in /  1010.7hPa NNW 4.0mph /  6.4km/h 10.0mph /  16.1km/h 73% 0.00in /  0mm
19:56 52.7 °F /  11.5 °C 43.9 °F /  6.6 °C 29.85in /  1010.7hPa NNW 6.0mph /  9.7km/h 10.0mph /  16.1km/h 72% 0.00in /  0mm
20:01 52.6 °F /  11.4 °C 43.8 °F /  6.6 °C 29.86in /  1011.1hPa NW 4.0mph /  6.4km/h 13.0mph /  20.9km/h 72% 0.00in /  0mm
20:06 52.4 °F /  11.3 °C 43.3 °F /  6.3 °C 29.86in /  1011.1hPa NNW 4.0mph /  6.4km/h 13.0mph /  20.9km/h 71% 0.00in /  0mm
20:11 52.1 °F /  11.2 °C 43.4 °F /  6.3 °C 29.86in /  1011.1hPa NNW 7.0mph /  11.3km/h 9.0mph /  14.5km/h 72% 0.00in /  0mm
20:16 51.8 °F /  11 °C 43.1 °F /  6.2 °C 29.86in /  1011.1hPa NNW 6.0mph /  9.7km/h 7.0mph /  11.3km/h 72% 0.00in /  0mm
20:21 51.5 °F /  10.8 °C 42.8 °F /  6 °C 29.86in /  1011.1hPa North 6.0mph /  9.7km/h 9.0mph /  14.5km/h 72% 0.00in /  0mm
20:22 51.5 °F /  10.8 °C 42.8 °F /  6 °C 29.86in /  1011.1hPa NNW 6.0mph /  9.7km/h 9.0mph /  14.5km/h 72% 0.00in /  0mm
20:27 51.3 °F /  10.7 °C 42.6 °F /  5.9 °C 29.86in /  1011.1hPa NW 4.0mph /  6.4km/h 11.0mph /  17.7km/h 72% 0.00in /  0mm
20:32 51.1 °F /  10.6 °C 42.0 °F /  5.6 °C 29.86in /  1011.1hPa NW 6.0mph /  9.7km/h 11.0mph /  17.7km/h 71% 0.00in /  0mm
20:37 51.0 °F /  10.6 °C 41.9 °F /  5.5 °C 29.87in /  1011.4hPa NNE 4.0mph /  6.4km/h 10.0mph /  16.1km/h 71% 0.00in /  0mm
20:42 50.8 °F /  10.4 °C 42.1 °F /  5.6 °C 29.87in /  1011.4hPa NW 3.0mph /  4.8km/h 7.0mph /  11.3km/h 72% 0.00in /  0mm
20:47 50.5 °F /  10.3 °C 41.5 °F /  5.3 °C 29.87in /  1011.4hPa NW 5.0mph /  8km/h 8.0mph /  12.9km/h 71% 0.00in /  0mm
20:53 50.4 °F /  10.2 °C 41.7 °F /  5.4 °C 29.87in /  1011.4hPa NNW 5.0mph /  8km/h 7.0mph /  11.3km/h 72% 0.00in /  0mm
20:58 50.1 °F /  10.1 °C 41.4 °F /  5.2 °C 29.87in /  1011.4hPa NW 6.0mph /  9.7km/h 6.0mph /  9.7km/h 72% 0.00in /  0mm
21:03 49.9 °F /  9.9 °C 41.6 °F /  5.3 °C 29.87in /  1011.4hPa NW 2.0mph /  3.2km/h 5.0mph /  8km/h 73% 0.00in /  0mm
21:08 49.9 °F /  9.9 °C 41.6 °F /  5.3 °C 29.88in /  1011.7hPa NW 5.0mph /  8km/h 5.0mph /  8km/h 73% 0.00in /  0mm
21:13 49.9 °F /  9.9 °C 41.6 °F /  5.3 °C 29.88in /  1011.7hPa NW 4.0mph /  6.4km/h 6.0mph /  9.7km/h 73% 0.00in /  0mm
21:18 49.7 °F /  9.8 °C 41.4 °F /  5.2 °C 29.88in /  1011.7hPa NW 5.0mph /  8km/h 5.0mph /  8km/h 73% 0.00in /  0mm
21:23 49.6 °F /  9.8 °C 41.3 °F /  5.2 °C 29.88in /  1011.7hPa NW 3.0mph /  4.8km/h 5.0mph /  8km/h 73% 0.00in /  0mm
21:28 49.6 °F /  9.8 °C 41.3 °F /  5.2 °C 29.89in /  1012.1hPa NW 4.0mph /  6.4km/h 7.0mph /  11.3km/h 73% 0.00in /  0mm
21:33 49.2 °F /  9.6 °C 41.3 °F /  5.2 °C 29.89in /  1012.1hPa NW 2.0mph /  3.2km/h 4.0mph /  6.4km/h 74% 0.00in /  0mm
21:38 49.0 °F /  9.4 °C 41.4 °F /  5.2 °C 29.89in /  1012.1hPa WNW 3.0mph /  4.8km/h 5.0mph /  8km/h 75% 0.00in /  0mm
21:43 48.8 °F /  9.3 °C 41.2 °F /  5.1 °C 29.89in /  1012.1hPa NW 3.0mph /  4.8km/h 5.0mph /  8km/h 75% 0.00in /  0mm
21:48 48.7 °F /  9.3 °C 41.1 °F /  5.1 °C 29.90in /  1012.4hPa NNW 3.0mph /  4.8km/h 4.0mph /  6.4km/h 75% 0.00in /  0mm
21:53 48.5 °F /  9.2 °C 41.3 °F /  5.2 °C 29.90in /  1012.4hPa NW 5.0mph /  8km/h 5.0mph /  8km/h 76% 0.00in /  0mm
21:58 48.3 °F /  9.1 °C 41.1 °F /  5.1 °C 29.90in /  1012.4hPa NW 2.0mph /  3.2km/h 3.0mph /  4.8km/h 76% 0.00in /  0mm
22:03 48.2 °F /  9 °C 41.3 °F /  5.2 °C 29.90in /  1012.4hPa WNW 2.0mph /  3.2km/h 4.0mph /  6.4km/h 77% 0.00in /  0mm
22:08 48.1 °F /  8.9 °C 41.2 °F /  5.1 °C 29.90in /  1012.4hPa NW 3.0mph /  4.8km/h 4.0mph /  6.4km/h 77% 0.00in /  0mm
22:13 48.1 °F /  8.9 °C 41.2 °F /  5.1 °C 29.90in /  1012.4hPa NW 1.0mph /  1.6km/h 3.0mph /  4.8km/h 77% 0.00in /  0mm
22:18 48.1 °F /  8.9 °C 41.2 °F /  5.1 °C 29.91in /  1012.8hPa WNW 3.0mph /  4.8km/h 4.0mph /  6.4km/h 77% 0.00in /  0mm
22:24 48.1 °F /  8.9 °C 41.2 °F /  5.1 °C 29.90in /  1012.4hPa WNW 4.0mph /  6.4km/h 4.0mph /  6.4km/h 77% 0.00in /  0mm
22:29 48.1 °F /  8.9 °C 41.2 °F /  5.1 °C 29.91in /  1012.8hPa WNW 2.0mph /  3.2km/h 5.0mph /  8km/h 77% 0.00in /  0mm
22:34 48.2 °F /  9 °C 41.3 °F /  5.2 °C 29.91in /  1012.8hPa WNW 3.0mph /  4.8km/h 5.0mph /  8km/h 77% 0.00in /  0mm
22:39 48.3 °F /  9.1 °C 41.4 °F /  5.2 °C 29.91in /  1012.8hPa NW 3.0mph /  4.8km/h 5.0mph /  8km/h 77% 0.00in /  0mm
22:44 48.4 °F /  9.1 °C 41.5 °F /  5.3 °C 29.91in /  1012.8hPa WNW 3.0mph /  4.8km/h 5.0mph /  8km/h 77% 0.00in /  0mm
22:49 48.5 °F /  9.2 °C 41.6 °F /  5.3 °C 29.91in /  1012.8hPa WNW 3.0mph /  4.8km/h 4.0mph /  6.4km/h 77% 0.00in /  0mm
22:54 48.6 °F /  9.2 °C 41.7 °F /  5.4 °C 29.91in /  1012.8hPa NW 4.0mph /  6.4km/h 6.0mph /  9.7km/h 77% 0.00in /  0mm
22:59 48.7 °F /  9.3 °C 41.8 °F /  5.4 °C 29.91in /  1012.8hPa WNW 5.0mph /  8km/h 6.0mph /  9.7km/h 77% 0.00in /  0mm
23:04 48.8 °F /  9.3 °C 41.9 °F /  5.5 °C 29.91in /  1012.8hPa NW 3.0mph /  4.8km/h 6.0mph /  9.7km/h 77% 0.00in /  0mm
23:09 48.9 °F /  9.4 °C 42.0 °F /  5.6 °C 29.91in /  1012.8hPa West 6.0mph /  9.7km/h 7.0mph /  11.3km/h 77% 0.00in /  0mm
23:14 48.9 °F /  9.4 °C 42.0 °F /  5.6 °C 29.92in /  1013.1hPa NNW 6.0mph /  9.7km/h 6.0mph /  9.7km/h 77% 0.00in /  0mm
23:19 48.8 °F /  9.3 °C 42.3 °F /  5.7 °C 29.92in /  1013.1hPa North 7.0mph /  11.3km/h 9.0mph /  14.5km/h 78% 0.00in /  0mm
23:24 48.2 °F /  9 °C 42.7 °F /  5.9 °C 29.92in /  1013.1hPa NW 4.0mph /  6.4km/h 7.0mph /  11.3km/h 81% 0.00in /  0mm
23:29 47.7 °F /  8.7 °C 42.8 °F /  6 °C 29.92in /  1013.1hPa WNW 4.0mph /  6.4km/h 8.0mph /  12.9km/h 83% 0.00in /  0mm
23:34 47.4 °F /  8.6 °C 42.8 °F /  6 °C 29.91in /  1012.8hPa WNW 2.0mph /  3.2km/h 6.0mph /  9.7km/h 84% 0.00in /  0mm
23:39 47.1 °F /  8.4 °C 42.8 °F /  6 °C 29.91in /  1012.8hPa NW 3.0mph /  4.8km/h 6.0mph /  9.7km/h 85% 0.00in /  0mm
23:44 46.9 °F /  8.3 °C 42.9 °F /  6.1 °C 29.91in /  1012.8hPa WNW 2.0mph /  3.2km/h 7.0mph /  11.3km/h 86% 0.00in /  0mm
23:49 46.7 °F /  8.2 °C 43.0 °F /  6.1 °C 29.91in /  1012.8hPa WNW 4.0mph /  6.4km/h 4.0mph /  6.4km/h 87% 0.00in /  0mm
23:54 46.5 °F /  8.1 °C 43.1 °F /  6.2 °C 29.91in /  1012.8hPa NW 2.0mph /  3.2km/h 5.0mph /  8km/h 88% 0.00in /  0mm
Compliments of Weather Underground